createdAt,value
2022-10-19T00:01:13.036Z,22.00
2022-10-19T00:03:43.581Z,22.00
2022-10-19T00:06:13.702Z,22.00
2022-10-19T00:08:41.801Z,22.00
2022-10-19T00:11:10.468Z,21.90
2022-10-19T00:13:38.557Z,21.90
2022-10-19T00:16:11.545Z,21.90
2022-10-19T00:18:40.328Z,21.90
2022-10-19T00:21:11.377Z,21.80
2022-10-19T00:23:39.802Z,21.80
2022-10-19T00:26:08.673Z,21.80
2022-10-19T00:28:36.865Z,21.70
2022-10-19T00:31:06.136Z,21.70
2022-10-19T00:33:34.499Z,21.70
2022-10-19T00:36:03.090Z,21.70
2022-10-19T00:38:33.141Z,21.70
2022-10-19T00:41:01.258Z,21.70
2022-10-19T00:43:32.632Z,21.60
2022-10-19T00:46:00.716Z,21.60
2022-10-19T00:48:32.818Z,21.60
2022-10-19T00:51:01.389Z,21.60
2022-10-19T00:53:31.914Z,21.60
2022-10-19T00:56:07.048Z,21.50
2022-10-19T00:58:35.656Z,21.50
2022-10-19T01:01:06.796Z,21.50
2022-10-19T01:03:35.245Z,21.50
2022-10-19T01:06:04.240Z,21.40
2022-10-19T01:08:32.906Z,21.40
2022-10-19T01:11:24.460Z,21.40
2022-10-19T01:14:03.497Z,21.40
2022-10-19T01:16:47.725Z,21.40
2022-10-19T01:19:40.796Z,21.40
2022-10-19T01:22:23.072Z,21.40
2022-10-19T01:25:01.288Z,21.30
2022-10-19T01:28:02.218Z,21.30
2022-10-19T01:30:42.823Z,21.30
2022-10-19T01:33:25.325Z,21.30
2022-10-19T01:36:02.875Z,21.30
2022-10-19T01:38:37.418Z,21.30
2022-10-19T01:41:15.516Z,21.60
2022-10-19T01:46:19.478Z,21.70
2022-10-19T01:56:24.733Z,21.00
2022-10-19T02:03:53.866Z,20.90
2022-10-19T02:28:51.671Z,20.60
2022-10-19T02:56:33.946Z,20.60
2022-10-19T02:59:02.127Z,20.40
2022-10-19T03:06:26.883Z,20.30
2022-10-19T03:08:56.427Z,20.20
2022-10-19T03:16:21.265Z,19.80
2022-10-19T03:26:17.658Z,19.90
2022-10-19T03:43:42.193Z,20.30
2022-10-19T03:51:10.537Z,19.70
2022-10-19T03:56:09.463Z,19.80
2022-10-19T03:58:40.290Z,19.90
2022-10-19T04:01:10.343Z,19.70
2022-10-19T04:06:09.568Z,20.10
2022-10-19T04:13:36.474Z,19.80
2022-10-19T04:23:34.532Z,19.40
2022-10-19T04:26:02.883Z,19.40
2022-10-19T04:31:03.559Z,19.60
2022-10-19T04:33:33.744Z,19.50
2022-10-19T04:48:33.537Z,19.60
2022-10-19T05:00:55.620Z,19.20
2022-10-19T05:03:23.752Z,18.70
2022-10-19T05:05:53.263Z,18.40
2022-10-19T05:15:56.941Z,18.40
2022-10-19T05:18:25.341Z,18.30
2022-10-19T05:21:02.299Z,18.70
2022-10-19T05:26:05.347Z,18.90
2022-10-19T05:28:34.060Z,18.80
2022-10-19T05:36:19.269Z,18.30
2022-10-19T05:41:17.831Z,18.20
2022-10-19T05:43:47.052Z,18.30
2022-10-19T05:46:18.203Z,18.40
2022-10-19T05:48:47.191Z,18.60
2022-10-19T05:51:18.377Z,18.50
2022-10-19T05:56:17.693Z,18.80
2022-10-19T06:03:43.611Z,18.20
2022-10-19T06:11:11.232Z,18.60
2022-10-19T06:16:09.896Z,18.70
2022-10-19T06:21:08.922Z,18.30
2022-10-19T06:26:08.588Z,18.60
2022-10-19T06:28:38.048Z,18.60
2022-10-19T06:41:07.769Z,19.30
2022-10-19T06:43:36.496Z,19.60
2022-10-19T06:51:06.333Z,19.80
2022-10-19T06:56:05.228Z,19.60
2022-10-19T07:03:36.779Z,20.30
2022-10-19T07:06:06.765Z,20.40
2022-10-19T07:08:34.819Z,19.90
2022-10-19T07:11:04.559Z,19.50
2022-10-19T07:16:05.640Z,19.80
2022-10-19T07:18:34.585Z,19.70
2022-10-19T07:21:04.262Z,19.20
2022-10-19T07:23:33.960Z,20.20
2022-10-19T07:36:06.652Z,20.40
2022-10-19T07:38:35.579Z,20.90
2022-10-19T07:41:06.268Z,19.90
2022-10-19T07:46:03.909Z,20.80
2022-10-19T07:48:33.786Z,20.50
2022-10-19T07:51:02.049Z,21.20
2022-10-19T07:56:04.943Z,21.10
2022-10-19T07:58:34.300Z,20.90
2022-10-19T08:01:03.241Z,21.00
2022-10-19T08:04:31.235Z,21.20
2022-10-19T08:06:21.331Z,21.10
2022-10-19T08:08:49.731Z,21.20
2022-10-19T08:11:20.924Z,21.30
2022-10-19T08:13:49.717Z,21.80
2022-10-19T08:16:24.499Z,21.90
2022-10-19T08:18:53.351Z,21.30
2022-10-19T08:21:22.972Z,21.60
2022-10-19T08:23:51.223Z,22.50
2022-10-19T08:26:19.403Z,22.30
2022-10-19T08:28:47.517Z,22.70
2022-10-19T08:31:18.300Z,22.30
2022-10-19T08:33:47.183Z,22.30
2022-10-19T08:36:15.769Z,23.20
2022-10-19T08:38:45.216Z,22.80
2022-10-19T08:41:32.840Z,22.60
2022-10-19T08:44:17.663Z,23.10
2022-10-19T08:46:55.306Z,24.00
2022-10-19T08:49:26.721Z,23.60
2022-10-19T08:51:59.090Z,23.90
2022-10-19T08:54:37.007Z,23.80
2022-10-19T08:57:14.635Z,24.00
2022-10-19T08:59:48.941Z,24.70
2022-10-19T09:02:22.731Z,24.20
2022-10-19T09:04:59.495Z,23.80
2022-10-19T09:07:30.590Z,23.70
2022-10-19T09:10:05.661Z,24.60
2022-10-19T09:12:42.181Z,24.30
2022-10-19T09:15:14.888Z,24.50
2022-10-19T09:17:43.034Z,25.70
2022-10-19T09:20:18.053Z,24.90
2022-10-19T09:22:47.088Z,25.80
2022-10-19T09:25:20.709Z,25.00
2022-10-19T09:27:54.161Z,25.30
2022-10-19T09:30:24.655Z,25.50
2022-10-19T09:32:59.630Z,25.90
2022-10-19T09:35:31.745Z,26.00
2022-10-19T09:38:00.519Z,26.90
2022-10-19T09:40:31.735Z,26.90
2022-10-19T09:43:08.519Z,27.30
2022-10-19T09:45:42.001Z,27.00
2022-10-19T09:48:17.827Z,27.10
2022-10-19T09:50:47.159Z,26.90
2022-10-19T09:53:21.276Z,28.10
2022-10-19T09:55:58.499Z,27.50
2022-10-19T09:58:30.561Z,27.10
2022-10-19T10:01:02.220Z,27.60
2022-10-19T10:03:32.435Z,27.30
2022-10-19T10:06:05.266Z,27.80
2022-10-19T10:08:37.896Z,29.10
2022-10-19T10:11:12.356Z,28.20
2022-10-19T10:13:42.816Z,28.70
2022-10-19T10:16:15.160Z,28.80
2022-10-19T10:18:52.933Z,28.60
2022-10-19T10:21:26.139Z,29.40
2022-10-19T10:24:02.805Z,29.60
2022-10-19T10:26:32.617Z,32.40
2022-10-19T10:29:01.622Z,30.00
2022-10-19T10:31:31.287Z,29.70
2022-10-19T10:34:10.856Z,29.40
2022-10-19T10:36:52.852Z,29.20
2022-10-19T10:39:21.560Z,29.40
2022-10-19T10:41:51.329Z,29.40
2022-10-19T10:44:23.225Z,29.70
2022-10-19T10:46:57.296Z,29.60
2022-10-19T10:49:28.668Z,30.50
2022-10-19T10:51:58.819Z,32.40
2022-10-19T10:54:31.168Z,32.30
2022-10-19T10:57:13.837Z,31.40
2022-10-19T10:59:49.388Z,30.60
2022-10-19T11:02:30.330Z,30.20
2022-10-19T11:05:02.697Z,30.00
2022-10-19T11:07:33.900Z,29.80
2022-10-19T11:10:09.970Z,29.60
2022-10-19T11:12:44.494Z,29.40
2022-10-19T11:15:21.080Z,29.30
2022-10-19T11:17:58.547Z,30.20
2022-10-19T11:20:31.263Z,32.30
2022-10-19T11:23:08.422Z,33.40
2022-10-19T11:25:49.371Z,34.10
2022-10-19T11:28:31.865Z,34.20
2022-10-19T11:31:10.204Z,33.70
2022-10-19T11:33:51.790Z,33.00
2022-10-19T11:36:35.772Z,32.80
2022-10-19T11:39:32.931Z,33.80
2022-10-19T11:42:09.799Z,34.60
2022-10-19T11:44:56.223Z,34.30
2022-10-19T11:47:43.161Z,33.90
2022-10-19T11:50:21.279Z,34.60
2022-10-19T11:52:58.075Z,35.50
2022-10-19T11:55:38.089Z,36.40
2022-10-19T11:58:17.524Z,37.30
2022-10-19T12:00:57.708Z,38.10
2022-10-19T12:03:51.032Z,38.60
2022-10-19T12:06:24.775Z,38.30
2022-10-19T12:09:05.982Z,38.10
2022-10-19T12:11:51.169Z,38.30
2022-10-19T12:14:22.075Z,38.70
2022-10-19T12:16:54.431Z,39.00
2022-10-19T12:19:26.354Z,39.00
2022-10-19T12:21:59.540Z,38.90
2022-10-19T12:24:29.309Z,38.90
2022-10-19T12:26:58.197Z,38.90
2022-10-19T12:29:30.371Z,38.90
2022-10-19T12:32:02.188Z,38.70
2022-10-19T12:34:38.608Z,38.50
2022-10-19T12:37:13.150Z,38.40
2022-10-19T12:39:49.800Z,38.30
2022-10-19T12:42:26.032Z,38.10
2022-10-19T12:45:14.588Z,38.10
2022-10-19T12:48:20.062Z,38.20
2022-10-19T12:51:03.386Z,38.30
2022-10-19T12:53:36.101Z,38.40
2022-10-19T12:56:07.299Z,38.40
2022-10-19T12:58:45.035Z,38.50
2022-10-19T13:01:20.969Z,38.60
2022-10-19T13:03:52.573Z,38.70
2022-10-19T13:06:33.954Z,38.70
2022-10-19T13:09:05.084Z,38.70
2022-10-19T13:14:08.860Z,38.70
2022-10-19T13:16:59.119Z,38.60
2022-10-19T13:19:27.447Z,38.60
2022-10-19T13:22:26.619Z,38.50
2022-10-19T13:25:28.083Z,38.60
2022-10-19T13:27:58.324Z,38.70
2022-10-19T13:31:06.169Z,38.80
2022-10-19T13:33:50.712Z,38.90
2022-10-19T13:36:19.291Z,39.00
2022-10-19T13:39:05.871Z,39.00
2022-10-19T13:41:50.015Z,39.00
2022-10-19T13:44:25.111Z,39.00
2022-10-19T13:47:22.310Z,39.10
2022-10-19T13:50:18.364Z,39.30
2022-10-19T13:53:10.909Z,39.70
2022-10-19T13:56:12.488Z,40.20
2022-10-19T13:59:08.577Z,40.70
2022-10-19T14:01:51.152Z,41.10
2022-10-19T14:04:25.177Z,41.30
2022-10-19T14:06:57.223Z,41.60
2022-10-19T14:09:49.524Z,41.90
2022-10-19T14:12:24.430Z,42.20
2022-10-19T14:14:53.540Z,42.50
2022-10-19T14:17:24.643Z,42.60
2022-10-19T14:19:55.405Z,42.90
2022-10-19T14:22:29.984Z,43.00
2022-10-19T14:25:07.049Z,43.20
2022-10-19T14:27:37.084Z,43.30
2022-10-19T14:30:06.679Z,43.50
2022-10-19T14:32:36.079Z,43.60
2022-10-19T14:35:07.727Z,43.60
2022-10-19T14:37:37.794Z,43.60
2022-10-19T14:40:08.958Z,43.50
2022-10-19T14:42:41.887Z,43.50
2022-10-19T14:45:18.963Z,43.50
2022-10-19T14:47:55.499Z,43.30
2022-10-19T14:50:27.931Z,43.10
2022-10-19T14:53:02.420Z,42.60
2022-10-19T14:55:36.081Z,42.20
2022-10-19T14:58:17.843Z,41.60
2022-10-19T15:00:49.456Z,40.90
2022-10-19T15:03:23.844Z,40.50
2022-10-19T15:05:56.488Z,40.10
2022-10-19T15:08:32.593Z,39.90
2022-10-19T15:11:01.213Z,39.40
2022-10-19T15:13:33.556Z,38.90
2022-10-19T15:16:01.930Z,38.40
2022-10-19T15:18:49.731Z,37.80
2022-10-19T15:21:20.762Z,37.40
2022-10-19T15:23:51.503Z,36.90
2022-10-19T15:26:22.104Z,36.60
2022-10-19T15:28:51.641Z,36.30
2022-10-19T15:31:21.746Z,36.10
2022-10-19T15:33:52.503Z,35.80
2022-10-19T15:36:21.911Z,35.60
2022-10-19T15:39:11.455Z,35.30
2022-10-19T15:41:48.292Z,35.10
2022-10-19T15:44:33.514Z,34.80
2022-10-19T15:47:21.747Z,34.50
2022-10-19T15:49:55.643Z,34.30
2022-10-19T15:52:25.258Z,34.00
2022-10-19T15:54:54.779Z,33.80
2022-10-19T15:57:29.891Z,33.60
2022-10-19T16:00:01.172Z,33.40
2022-10-19T16:02:29.389Z,33.20
2022-10-19T16:04:57.469Z,32.90
2022-10-19T16:07:28.313Z,32.80
2022-10-19T16:09:56.395Z,32.60
2022-10-19T16:12:26.351Z,32.40
2022-10-19T16:14:54.907Z,32.20
2022-10-19T16:17:24.846Z,32.10
2022-10-19T16:19:52.916Z,31.90
2022-10-19T16:22:21.075Z,31.70
2022-10-19T16:24:49.276Z,31.60
2022-10-19T16:27:17.433Z,31.40
2022-10-19T16:29:46.077Z,31.30
2022-10-19T16:32:14.194Z,31.10
2022-10-19T16:34:43.620Z,31.00
2022-10-19T16:37:11.517Z,30.80
2022-10-19T16:39:39.567Z,30.70
2022-10-19T16:42:07.631Z,30.60
2022-10-19T16:44:35.700Z,30.50
2022-10-19T16:47:04.039Z,30.40
2022-10-19T16:49:32.362Z,30.30
2022-10-19T16:52:01.911Z,30.10
2022-10-19T16:54:30.753Z,30.00
2022-10-19T16:56:58.841Z,30.00
2022-10-19T16:59:26.891Z,29.80
2022-10-19T17:01:55.212Z,29.70
2022-10-19T17:04:23.356Z,29.60
2022-10-19T17:06:51.453Z,29.60
2022-10-19T17:09:40.755Z,29.40
2022-10-19T17:12:08.976Z,29.30
2022-10-19T17:14:39.116Z,29.20
2022-10-19T17:17:07.242Z,29.10
2022-10-19T17:19:35.313Z,29.10
2022-10-19T17:22:05.149Z,29.00
2022-10-19T17:24:34.923Z,28.90
2022-10-19T17:27:04.052Z,28.80
2022-10-19T17:29:32.359Z,28.70
2022-10-19T17:32:00.737Z,28.60
2022-10-19T17:34:28.852Z,28.60
2022-10-19T17:36:56.955Z,28.50
2022-10-19T17:39:29.154Z,28.50
2022-10-19T17:42:02.050Z,28.40
2022-10-19T17:44:31.595Z,28.30
2022-10-19T17:47:00.427Z,28.20
2022-10-19T17:49:29.763Z,28.20
2022-10-19T17:51:57.952Z,28.10
2022-10-19T17:54:26.113Z,28.00
2022-10-19T17:56:54.299Z,27.90
2022-10-19T17:59:34.953Z,27.90
2022-10-19T18:02:09.366Z,27.80
2022-10-19T18:04:37.429Z,27.80
2022-10-19T18:07:05.487Z,27.70
2022-10-19T18:09:33.529Z,27.60
2022-10-19T18:12:05.022Z,27.60
2022-10-19T18:14:36.637Z,27.60
2022-10-19T18:17:04.699Z,27.50
2022-10-19T18:19:33.067Z,27.40
2022-10-19T18:22:01.161Z,27.40
2022-10-19T18:24:29.258Z,27.30
2022-10-19T18:26:57.400Z,27.30
2022-10-19T18:29:27.207Z,27.20
2022-10-19T18:31:56.701Z,27.20
2022-10-19T18:34:26.390Z,27.10
2022-10-19T18:36:54.817Z,27.10
2022-10-19T18:39:23.599Z,27.10
2022-10-19T18:41:54.505Z,27.00
2022-10-19T18:44:26.513Z,27.00
2022-10-19T18:46:57.858Z,26.90
2022-10-19T18:49:26.576Z,26.80
2022-10-19T18:51:55.848Z,26.80
2022-10-19T18:54:24.604Z,26.70
2022-10-19T18:56:53.246Z,26.60
2022-10-19T18:59:21.301Z,26.60
2022-10-19T19:01:49.513Z,26.60
2022-10-19T19:04:18.978Z,26.50
2022-10-19T19:06:47.196Z,26.50
2022-10-19T19:09:17.352Z,26.40
2022-10-19T19:11:45.450Z,26.30
2022-10-19T19:14:15.728Z,26.30
2022-10-19T19:16:45.983Z,26.30
2022-10-19T19:19:16.428Z,26.30
2022-10-19T19:21:46.781Z,26.30
2022-10-19T19:24:17.048Z,26.20
2022-10-19T19:26:48.519Z,26.10
2022-10-19T19:29:17.404Z,26.10
2022-10-19T19:31:45.520Z,26.10
2022-10-19T19:34:13.625Z,26.00
2022-10-19T19:36:47.012Z,26.00
2022-10-19T19:39:19.909Z,25.90
2022-10-19T19:41:48.823Z,25.90
2022-10-19T19:44:17.300Z,25.80
2022-10-19T19:46:45.501Z,25.80
2022-10-19T19:49:13.556Z,25.80
2022-10-19T19:51:41.632Z,25.70
2022-10-19T19:54:09.719Z,25.70
2022-10-19T19:56:40.100Z,25.70
2022-10-19T19:59:08.161Z,25.60
2022-10-19T20:01:37.341Z,25.60
2022-10-19T20:04:06.250Z,25.50
2022-10-19T20:06:36.416Z,25.50
2022-10-19T20:09:05.259Z,25.50
2022-10-19T20:11:36.105Z,25.50
2022-10-19T20:14:07.821Z,25.40
2022-10-19T20:16:36.991Z,25.40
2022-10-19T20:19:08.276Z,25.30
2022-10-19T20:21:36.944Z,25.30
2022-10-19T20:24:05.404Z,25.30
2022-10-19T20:26:33.602Z,25.20
2022-10-19T20:29:03.007Z,25.20
2022-10-19T20:31:33.556Z,25.20
2022-10-19T20:34:01.897Z,25.20
2022-10-19T20:36:30.075Z,25.10
2022-10-19T20:38:59.544Z,25.10
2022-10-19T20:41:29.566Z,25.10
2022-10-19T20:43:58.217Z,25.00
2022-10-19T20:46:29.036Z,25.00
2022-10-19T20:49:00.434Z,25.00
2022-10-19T20:51:32.098Z,24.90
2022-10-19T20:54:02.774Z,24.90
2022-10-19T20:56:32.744Z,24.90
2022-10-19T21:01:32.871Z,24.80
2022-10-19T21:04:03.347Z,24.70
2022-10-19T21:06:33.239Z,24.70
2022-10-19T21:09:01.534Z,24.70
2022-10-19T21:11:31.534Z,24.70
2022-10-19T21:14:01.260Z,24.60
2022-10-19T21:16:33.618Z,24.50
2022-10-19T21:19:04.091Z,24.50
2022-10-19T21:21:33.609Z,24.50
2022-10-19T21:24:04.498Z,24.50
2022-10-19T21:26:34.583Z,24.40
2022-10-19T21:29:03.104Z,24.40
2022-10-19T21:31:31.232Z,24.40
2022-10-19T21:33:59.402Z,24.30
2022-10-19T21:36:28.859Z,24.30
2022-10-19T21:38:57.534Z,24.20
2022-10-19T21:41:26.539Z,24.20
2022-10-19T21:43:54.815Z,24.20
2022-10-19T21:46:24.236Z,24.20
2022-10-19T21:48:53.223Z,24.10
2022-10-19T21:51:34.893Z,24.10
2022-10-19T21:54:05.674Z,24.00
2022-10-19T21:56:35.140Z,24.00
2022-10-19T21:59:03.466Z,24.00
2022-10-19T22:01:38.518Z,24.00
2022-10-19T22:04:12.103Z,23.90
2022-10-19T22:06:40.746Z,23.90
2022-10-19T22:09:11.716Z,23.90
2022-10-19T22:11:39.844Z,23.80
2022-10-19T22:14:07.884Z,23.80
2022-10-19T22:16:37.098Z,23.80
2022-10-19T22:19:06.279Z,23.80
2022-10-19T22:21:35.277Z,23.80
2022-10-19T22:24:05.748Z,23.70
2022-10-19T22:26:36.975Z,23.60
2022-10-19T22:29:06.525Z,23.60
2022-10-19T22:31:36.557Z,23.60
2022-10-19T22:34:07.265Z,23.60
2022-10-19T22:36:35.520Z,23.50
2022-10-19T22:39:03.826Z,23.60
2022-10-19T22:41:32.136Z,23.50
2022-10-19T22:44:01.737Z,23.50
2022-10-19T22:46:29.847Z,23.40
2022-10-19T22:48:57.949Z,23.40
2022-10-19T22:51:26.050Z,23.40
2022-10-19T22:53:54.148Z,23.40
2022-10-19T22:56:22.216Z,23.30
2022-10-19T22:58:50.341Z,23.30
2022-10-19T23:01:19.961Z,23.30
2022-10-19T23:03:48.140Z,23.20
2022-10-19T23:06:16.263Z,23.20
2022-10-19T23:08:44.539Z,23.20
2022-10-19T23:11:13.186Z,23.10
2022-10-19T23:13:41.972Z,23.10
2022-10-19T23:16:10.904Z,23.10
2022-10-19T23:18:42.106Z,23.10
2022-10-19T23:21:12.838Z,23.10
2022-10-19T23:23:41.500Z,23.10
2022-10-19T23:26:12.832Z,23.00
2022-10-19T23:28:43.753Z,23.00
2022-10-19T23:31:13.780Z,22.90
2022-10-19T23:33:43.992Z,22.90
2022-10-19T23:36:15.231Z,22.90
2022-10-19T23:38:43.917Z,22.90
2022-10-19T23:41:12.752Z,22.80
2022-10-19T23:43:41.297Z,22.80
2022-10-19T23:46:09.952Z,22.80
2022-10-19T23:48:39.748Z,22.80
2022-10-19T23:51:11.760Z,22.80
2022-10-19T23:53:41.765Z,22.70
2022-10-19T23:56:12.578Z,22.70
2022-10-19T23:58:40.746Z,22.70
